Terminal Aerodrome Forecast
Issued by NWS Houston/Galveston TX

Current Version | Previous Version | Text Only | Print | Product List | Glossary Off
Versions: 1 2 3 4 5 6 7 8 9 10 11 12 13 14 15 16 17 18 19 20 21 22 23 24 25 26 27 28 29 30 31 32 33 34 35 36 37 38 39 40 41 42 43 44 45 46 47

000
FTUS44 KHGX 281843 AAA
TAFHOU
TAF AMD
KHOU 281843Z 2819/2918 16011KT P6SM FEW025 BKN045
     FM290100 17006KT P6SM SCT025
     FM290700 19007KT P6SM SCT015 BKN025 WS020/22040KT
     FM291500 18012G22KT P6SM BKN035=

USA.gov is the U.S. government's official web portal to all federal, state and local government web resources and services.